createdAt,value
2022-08-11T00:00:13.868Z,68.80
2022-08-11T00:02:47.242Z,70.20
2022-08-11T00:05:20.359Z,69.10
2022-08-11T00:07:56.095Z,69.20
2022-08-11T00:10:28.399Z,68.40
2022-08-11T00:13:02.385Z,68.40
2022-08-11T00:15:48.801Z,67.30
2022-08-11T00:18:16.966Z,66.90
2022-08-11T00:20:45.369Z,67.60
2022-08-11T00:23:17.427Z,68.80
2022-08-11T00:25:48.259Z,70.30
2022-08-11T00:28:33.182Z,69.90
2022-08-11T00:31:06.899Z,69.10
2022-08-11T00:33:41.334Z,68.80
2022-08-11T00:36:15.700Z,68.60
2022-08-11T00:38:45.607Z,67.80
2022-08-11T00:41:34.217Z,68.20
2022-08-11T00:44:19.924Z,68.70
2022-08-11T00:46:55.248Z,69.30
2022-08-11T00:49:34.443Z,69.50
2022-08-11T00:52:38.408Z,70.00
2022-08-11T00:55:23.614Z,70.30
2022-08-11T00:58:14.966Z,70.50
2022-08-11T01:01:11.215Z,71.10
2022-08-11T01:04:11.758Z,70.60
2022-08-11T01:06:53.314Z,70.40
2022-08-11T01:09:37.679Z,71.00
2022-08-11T01:12:36.737Z,71.30
2022-08-11T01:15:57.054Z,70.50
2022-08-11T01:18:43.971Z,70.40
2022-08-11T01:21:35.833Z,71.20
2022-08-11T01:24:40.982Z,71.00
2022-08-11T01:27:19.349Z,71.60
2022-08-11T01:29:53.214Z,71.60
2022-08-11T01:32:21.050Z,72.70
2022-08-11T01:35:37.259Z,73.10
2022-08-11T01:38:33.039Z,73.50
2022-08-11T01:41:31.182Z,74.30
2022-08-11T01:44:12.728Z,73.90
2022-08-11T01:47:28.739Z,73.90
2022-08-11T01:50:10.759Z,74.80
2022-08-11T01:53:13.249Z,74.20
2022-08-11T01:55:54.950Z,74.70
2022-08-11T01:58:45.774Z,74.50
2022-08-11T02:01:38.146Z,74.80
2022-08-11T02:04:08.803Z,75.10
2022-08-11T02:06:42.877Z,74.70
2022-08-11T02:09:33.496Z,74.30
2022-08-11T02:12:34.291Z,73.70
2022-08-11T02:15:46.041Z,73.00
2022-08-11T02:18:16.994Z,71.20
2022-08-11T02:21:00.460Z,72.00
2022-08-11T02:24:04.303Z,71.30
2022-08-11T02:26:41.626Z,71.30
2022-08-11T02:29:16.863Z,71.50
2022-08-11T02:32:28.426Z,72.40
2022-08-11T02:35:14.808Z,72.60
2022-08-11T02:37:58.644Z,72.40
2022-08-11T02:40:50.995Z,72.40
2022-08-11T02:43:52.525Z,71.80
2022-08-11T02:46:32.180Z,72.40
2022-08-11T02:49:15.327Z,72.60
2022-08-11T02:52:14.933Z,72.90
2022-08-11T02:55:00.617Z,74.20
2022-08-11T02:57:35.287Z,73.60
2022-08-11T03:00:14.987Z,74.00
2022-08-11T03:02:54.439Z,73.20
2022-08-11T03:05:47.835Z,74.50
2022-08-11T03:08:17.638Z,74.20
2022-08-11T03:10:54.905Z,74.30
2022-08-11T03:13:34.482Z,73.90
2022-08-11T03:16:16.242Z,74.00
2022-08-11T03:18:54.506Z,74.40
2022-08-11T03:21:52.318Z,74.00
2022-08-11T03:24:37.110Z,74.10
2022-08-11T03:27:21.037Z,75.30
2022-08-11T03:30:05.535Z,76.30
2022-08-11T03:35:21.651Z,77.40
2022-08-11T03:38:00.182Z,78.50
2022-08-11T03:40:41.081Z,77.50
2022-08-11T03:43:27.916Z,76.00
2022-08-11T03:46:19.483Z,75.10
2022-08-11T03:49:23.621Z,74.10
2022-08-11T03:52:26.587Z,72.80
2022-08-11T03:54:59.311Z,73.50
2022-08-11T03:57:52.204Z,72.30
2022-08-11T04:00:41.413Z,71.40
2022-08-11T04:03:33.388Z,70.70
2022-08-11T04:06:21.442Z,72.90
2022-08-11T04:09:25.666Z,72.00
2022-08-11T04:12:36.674Z,73.10
2022-08-11T04:15:31.239Z,73.70
2022-08-11T04:18:03.840Z,74.20
2022-08-11T04:20:58.140Z,75.40
2022-08-11T04:24:35.833Z,75.10
2022-08-11T04:27:14.212Z,73.60
2022-08-11T04:30:02.109Z,73.90
2022-08-11T04:32:59.035Z,74.70
2022-08-11T04:35:40.028Z,76.80
2022-08-11T04:38:12.919Z,77.70
2022-08-11T04:41:04.383Z,76.80
2022-08-11T04:44:02.372Z,77.80
2022-08-11T04:46:59.495Z,76.80
2022-08-11T04:49:38.682Z,76.10
2022-08-11T04:52:43.751Z,76.80
2022-08-11T04:55:10.573Z,74.60
2022-08-11T04:57:50.119Z,76.70
2022-08-11T05:00:18.858Z,77.30
2022-08-11T05:03:03.766Z,77.70
2022-08-11T05:06:01.823Z,76.40
2022-08-11T05:08:44.034Z,74.90
2022-08-11T05:11:42.674Z,72.70
2022-08-11T05:14:12.588Z,72.40
2022-08-11T05:16:55.563Z,73.80
2022-08-11T05:19:22.614Z,71.10
2022-08-11T05:21:57.365Z,71.60
2022-08-11T05:24:35.971Z,71.60
2022-08-11T05:27:09.968Z,69.70
2022-08-11T05:29:56.917Z,67.10
2022-08-11T05:32:24.317Z,67.10
2022-08-11T05:34:55.765Z,68.20
2022-08-11T05:37:38.760Z,68.90
2022-08-11T05:40:07.742Z,69.60
2022-08-11T05:45:15.677Z,79.00
2022-08-11T05:47:43.500Z,64.70
2022-08-11T05:50:13.764Z,64.70
2022-08-11T05:52:46.972Z,64.50
2022-08-11T05:55:16.569Z,64.60
2022-08-11T05:57:51.094Z,63.70
2022-08-11T06:00:19.715Z,64.10
2022-08-11T06:02:51.972Z,64.20
2022-08-11T06:05:32.704Z,62.70
2022-08-11T06:08:09.659Z,63.60
2022-08-11T06:13:06.192Z,70.10
2022-08-11T06:15:34.750Z,60.50
2022-08-11T06:18:03.410Z,63.30
2022-08-11T06:20:31.798Z,62.70
2022-08-11T06:23:05.362Z,62.90
2022-08-11T06:25:35.508Z,59.90
2022-08-11T06:28:07.654Z,60.70
2022-08-11T06:30:36.340Z,59.90
2022-08-11T06:33:06.864Z,59.60
2022-08-11T06:36:04.725Z,60.40
2022-08-11T06:38:58.371Z,61.90
2022-08-11T06:41:38.033Z,60.40
2022-08-11T06:46:56.414Z,75.60
2022-08-11T06:49:32.639Z,59.20
2022-08-11T06:52:07.034Z,59.90
2022-08-11T06:54:54.039Z,60.20
2022-08-11T07:00:01.140Z,80.80
2022-08-11T07:02:36.973Z,59.80
2022-08-11T07:05:11.766Z,56.90
2022-08-11T07:08:34.641Z,57.20
2022-08-11T07:11:17.349Z,58.60
2022-08-11T07:13:45.966Z,57.20
2022-08-11T07:16:25.036Z,58.00
2022-08-11T07:19:07.846Z,58.10
2022-08-11T07:22:00.297Z,58.00
2022-08-11T07:24:34.410Z,56.50
2022-08-11T07:32:30.606Z,77.20
2022-08-11T07:35:09.278Z,76.70
2022-08-11T07:37:37.186Z,75.70
2022-08-11T07:40:04.869Z,66.00
2022-08-11T07:42:34.278Z,63.80
2022-08-11T07:45:02.648Z,62.60
2022-08-11T07:47:30.216Z,62.70
2022-08-11T07:49:57.185Z,61.80
2022-08-11T07:52:28.331Z,61.80
2022-08-11T07:55:08.596Z,62.30
2022-08-11T07:58:14.108Z,62.10
2022-08-11T08:00:29.910Z,59.40
2022-08-11T08:12:49.923Z,74.60
2022-08-11T08:15:18.068Z,54.40
2022-08-11T08:20:44.430Z,62.40
2022-08-11T08:25:41.072Z,84.90
2022-08-11T08:28:11.569Z,55.80
2022-08-11T08:30:39.005Z,54.90
2022-08-11T08:33:06.330Z,53.90
2022-08-11T08:35:35.377Z,52.70
2022-08-11T08:38:21.552Z,55.00
2022-08-11T08:40:55.955Z,56.00
2022-08-11T08:43:26.773Z,53.70
2022-08-11T08:45:57.165Z,54.20
2022-08-11T08:48:26.018Z,54.80
2022-08-11T08:50:57.697Z,54.80
2022-08-11T08:53:27.769Z,53.50
2022-08-11T08:55:55.927Z,53.60
2022-08-11T08:58:24.961Z,53.50
2022-08-11T09:00:56.855Z,53.10
2022-08-11T09:03:40.945Z,53.80
2022-08-11T09:06:13.575Z,54.10
2022-08-11T09:08:40.728Z,53.60
2022-08-11T09:11:13.285Z,48.40
2022-08-11T09:13:41.445Z,49.70
2022-08-11T09:16:10.210Z,50.40
2022-08-11T09:18:37.890Z,50.90
2022-08-11T09:21:05.706Z,52.50
2022-08-11T09:26:19.944Z,53.20
2022-08-11T09:28:47.717Z,48.60
2022-08-11T09:31:15.995Z,49.70
2022-08-11T09:33:44.464Z,47.80
2022-08-11T09:36:13.407Z,47.60
2022-08-11T09:38:44.057Z,50.60
2022-08-11T09:41:14.900Z,47.40
2022-08-11T09:43:46.199Z,46.60
2022-08-11T09:46:13.642Z,48.40
2022-08-11T09:48:44.223Z,49.00
2022-08-11T09:51:12.031Z,49.50
2022-08-11T09:53:42.716Z,49.30
2022-08-11T09:56:30.047Z,48.30
2022-08-11T09:58:58.061Z,48.60
2022-08-11T10:01:32.087Z,47.40
2022-08-11T10:04:05.692Z,48.60
2022-08-11T10:06:36.818Z,48.00
2022-08-11T10:09:06.179Z,47.90
2022-08-11T10:11:36.441Z,49.20
2022-08-11T10:14:33.462Z,47.80
2022-08-11T10:16:54.546Z,48.40
2022-08-11T10:19:22.308Z,49.00
2022-08-11T10:21:52.077Z,49.40
2022-08-11T10:24:19.292Z,48.70
2022-08-11T10:26:48.397Z,48.80
2022-08-11T10:29:16.668Z,48.20
2022-08-11T10:31:59.309Z,48.70
2022-08-11T10:34:30.181Z,49.70
2022-08-11T10:36:59.061Z,50.30
2022-08-11T10:39:27.373Z,51.90
2022-08-11T10:42:06.780Z,50.90
2022-08-11T10:44:42.074Z,51.90
2022-08-11T10:47:12.538Z,49.60
2022-08-11T10:49:40.631Z,49.10
2022-08-11T10:52:07.838Z,51.80
2022-08-11T10:54:36.191Z,50.00
2022-08-11T10:57:04.122Z,49.30
2022-08-11T10:59:34.890Z,50.90
2022-08-11T11:02:01.967Z,50.60
2022-08-11T11:04:53.355Z,47.80
2022-08-11T11:07:36.647Z,49.00
2022-08-11T11:10:11.299Z,48.30
2022-08-11T11:12:42.365Z,50.10
2022-08-11T11:15:10.329Z,47.20
2022-08-11T11:17:57.325Z,49.80
2022-08-11T11:20:36.078Z,49.50
2022-08-11T11:23:10.619Z,46.90
2022-08-11T11:25:49.270Z,48.00
2022-08-11T11:28:35.912Z,47.80
2022-08-11T11:31:30.272Z,47.80
2022-08-11T11:34:23.758Z,49.70
2022-08-11T11:36:54.420Z,46.90
2022-08-11T11:39:26.080Z,49.70
2022-08-11T11:42:04.597Z,47.80
2022-08-11T11:44:32.799Z,50.40
2022-08-11T11:47:00.951Z,48.70
2022-08-11T11:49:30.091Z,48.80
2022-08-11T11:51:59.329Z,49.70
2022-08-11T11:54:31.242Z,49.50
2022-08-11T11:56:59.872Z,49.10
2022-08-11T11:59:28.183Z,48.50
2022-08-11T12:01:56.958Z,49.00
2022-08-11T12:04:24.679Z,50.00
2022-08-11T12:06:52.023Z,48.60
2022-08-11T12:09:19.118Z,49.30
2022-08-11T12:11:50.621Z,48.90
2022-08-11T12:14:21.069Z,49.60
2022-08-11T12:16:48.987Z,49.80
2022-08-11T12:19:23.204Z,50.30
2022-08-11T12:21:51.547Z,48.60
2022-08-11T12:24:29.272Z,50.00
2022-08-11T12:27:16.028Z,49.30
2022-08-11T12:29:45.591Z,48.90
2022-08-11T12:32:12.953Z,49.50
2022-08-11T12:34:39.827Z,49.90
2022-08-11T12:37:07.633Z,49.60
2022-08-11T12:40:10.856Z,50.00
2022-08-11T12:42:26.671Z,50.90
2022-08-11T12:44:57.310Z,49.00
2022-08-11T12:47:25.200Z,51.40
2022-08-11T12:49:54.490Z,50.30
2022-08-11T12:52:27.359Z,50.50
2022-08-11T12:54:59.274Z,49.20
2022-08-11T12:57:45.585Z,49.00
2022-08-11T13:00:13.112Z,48.30
2022-08-11T13:02:44.445Z,49.30
2022-08-11T13:05:16.322Z,49.20
2022-08-11T13:07:50.630Z,48.80
2022-08-11T13:10:20.492Z,48.80
2022-08-11T13:12:47.442Z,50.00
2022-08-11T13:15:15.790Z,48.50
2022-08-11T13:17:44.517Z,46.20
2022-08-11T13:20:12.971Z,48.30
2022-08-11T13:22:42.385Z,47.90
2022-08-11T13:25:09.863Z,47.20
2022-08-11T13:27:44.232Z,47.80
2022-08-11T13:30:12.053Z,47.30
2022-08-11T13:32:41.779Z,48.10
2022-08-11T13:35:16.003Z,48.50
2022-08-11T13:38:19.007Z,48.10
2022-08-11T13:40:54.738Z,48.00
2022-08-11T13:43:23.107Z,47.70
2022-08-11T13:45:50.320Z,48.10
2022-08-11T13:48:17.523Z,48.10
2022-08-11T13:50:46.285Z,48.80
2022-08-11T13:53:17.408Z,47.80
2022-08-11T13:55:52.244Z,48.00
2022-08-11T13:58:40.467Z,49.30
2022-08-11T14:01:51.422Z,49.70
2022-08-11T14:04:30.412Z,47.50
2022-08-11T14:06:48.912Z,48.00
2022-08-11T14:09:22.961Z,49.10
2022-08-11T14:12:21.778Z,48.80
2022-08-11T14:14:38.155Z,49.60
2022-08-11T14:17:09.663Z,48.00
2022-08-11T14:19:41.633Z,48.70
2022-08-11T14:22:08.988Z,48.50
2022-08-11T14:24:39.467Z,50.10
2022-08-11T14:27:08.495Z,49.60
2022-08-11T14:29:55.690Z,50.00
2022-08-11T14:32:23.730Z,49.50
2022-08-11T14:34:53.919Z,48.80
2022-08-11T14:37:23.594Z,48.60
2022-08-11T14:39:52.463Z,50.10
2022-08-11T14:42:22.556Z,49.80
2022-08-11T14:45:01.957Z,50.10
2022-08-11T14:47:32.406Z,51.70
2022-08-11T14:50:10.898Z,51.40
2022-08-11T14:53:02.439Z,51.40
2022-08-11T14:55:32.465Z,51.50
2022-08-11T14:58:01.062Z,50.40
2022-08-11T15:00:28.784Z,50.80
2022-08-11T15:02:56.642Z,51.20
2022-08-11T15:05:25.123Z,50.40
2022-08-11T15:07:53.664Z,50.70
2022-08-11T15:10:21.879Z,49.90
2022-08-11T15:12:49.376Z,51.30
2022-08-11T15:15:17.867Z,51.70
2022-08-11T15:17:46.652Z,51.90
2022-08-11T15:20:18.262Z,51.90
2022-08-11T15:22:45.109Z,51.00
2022-08-11T15:25:12.466Z,52.20
2022-08-11T15:27:40.955Z,51.90
2022-08-11T15:30:08.484Z,52.30
2022-08-11T15:32:36.351Z,51.40
2022-08-11T15:35:04.089Z,51.30
2022-08-11T15:37:31.777Z,52.00
2022-08-11T15:39:58.638Z,51.80
2022-08-11T15:42:25.530Z,51.50
2022-08-11T15:45:04.883Z,52.40
2022-08-11T15:47:55.298Z,51.80
2022-08-11T15:50:32.974Z,52.30
2022-08-11T15:53:06.302Z,52.30
2022-08-11T15:55:35.691Z,53.80
2022-08-11T15:58:07.174Z,51.90
2022-08-11T16:00:36.906Z,51.70
2022-08-11T16:03:05.651Z,52.80
2022-08-11T16:05:45.975Z,52.90
2022-08-11T16:13:15.488Z,55.50
2022-08-11T16:15:49.416Z,57.20
2022-08-11T16:18:20.418Z,58.10
2022-08-11T16:20:50.277Z,59.20
2022-08-11T16:23:18.249Z,60.00
2022-08-11T16:27:02.606Z,60.80
2022-08-11T16:28:35.047Z,61.90
2022-08-11T16:31:03.114Z,62.00
2022-08-11T16:33:49.813Z,62.30
2022-08-11T16:36:19.561Z,62.40
2022-08-11T16:38:46.870Z,62.00
2022-08-11T16:41:17.101Z,62.30
2022-08-11T16:43:47.679Z,62.20
2022-08-11T16:46:17.721Z,63.40
2022-08-11T16:48:47.905Z,62.60
2022-08-11T16:51:15.127Z,62.50
2022-08-11T16:53:47.395Z,62.20
2022-08-11T16:56:43.367Z,62.50
2022-08-11T16:59:17.103Z,61.90
2022-08-11T17:01:52.747Z,61.40
2022-08-11T17:04:21.543Z,61.10
2022-08-11T17:06:50.312Z,61.00
2022-08-11T17:09:21.980Z,61.30
2022-08-11T17:11:56.570Z,62.10
2022-08-11T17:14:35.438Z,63.40
2022-08-11T17:17:06.088Z,63.90
2022-08-11T17:20:40.357Z,63.30
2022-08-11T17:22:23.996Z,63.60
2022-08-11T17:24:52.653Z,65.70
2022-08-11T17:27:21.792Z,66.80
2022-08-11T17:29:55.418Z,66.10
2022-08-11T17:32:56.950Z,65.10
2022-08-11T17:35:24.029Z,65.40
2022-08-11T17:37:52.279Z,66.60
2022-08-11T17:40:22.852Z,66.90
2022-08-11T17:42:52.453Z,63.50
2022-08-11T17:45:20.839Z,64.90
2022-08-11T17:47:49.255Z,64.30
2022-08-11T17:50:18.251Z,64.60
2022-08-11T17:52:46.431Z,64.70
2022-08-11T17:55:15.543Z,64.50
2022-08-11T17:57:47.548Z,67.50
2022-08-11T18:00:15.448Z,68.10
2022-08-11T18:02:48.284Z,68.50
2022-08-11T18:05:18.346Z,69.20
2022-08-11T18:07:46.434Z,66.70
2022-08-11T18:10:13.352Z,68.70
2022-08-11T18:12:40.901Z,67.40
2022-08-11T18:15:08.350Z,67.50
2022-08-11T18:17:36.915Z,67.20
2022-08-11T18:20:04.303Z,63.80
2022-08-11T18:22:37.293Z,65.30
2022-08-11T18:25:10.626Z,65.60
2022-08-11T18:27:41.061Z,65.20
2022-08-11T18:30:09.112Z,64.50
2022-08-11T18:32:49.749Z,65.10
2022-08-11T18:35:19.583Z,65.00
2022-08-11T18:37:48.969Z,63.30
2022-08-11T18:40:23.292Z,63.20
2022-08-11T18:42:53.216Z,62.60
2022-08-11T18:45:20.830Z,62.40
2022-08-11T18:47:51.049Z,62.40
2022-08-11T18:50:38.411Z,62.60
2022-08-11T18:53:06.907Z,62.50
2022-08-11T18:55:34.873Z,63.30
2022-08-11T18:58:07.236Z,63.00
2022-08-11T19:00:38.351Z,62.60
2022-08-11T19:03:06.911Z,61.00
2022-08-11T19:06:05.946Z,61.70
2022-08-11T19:08:27.876Z,62.50
2022-08-11T19:10:57.738Z,61.10
2022-08-11T19:13:25.974Z,62.60
2022-08-11T19:15:54.345Z,61.70
2022-08-11T19:18:23.151Z,61.90
2022-08-11T19:20:52.526Z,61.90
2022-08-11T19:23:36.455Z,62.10
2022-08-11T19:26:04.683Z,61.20
2022-08-11T19:28:33.620Z,61.30
2022-08-11T19:31:00.877Z,62.20
2022-08-11T19:34:02.824Z,61.50
2022-08-11T19:36:16.920Z,62.30
2022-08-11T19:38:44.852Z,61.70
2022-08-11T19:41:15.062Z,61.80
2022-08-11T19:43:46.601Z,62.30
2022-08-11T19:46:14.406Z,62.70
2022-08-11T19:48:42.303Z,63.20
2022-08-11T19:51:10.531Z,62.80
2022-08-11T19:53:38.016Z,63.30
2022-08-11T19:56:06.861Z,63.90
2022-08-11T19:58:37.693Z,62.80
2022-08-11T20:01:05.761Z,63.70
2022-08-11T20:03:32.784Z,63.60
2022-08-11T20:06:03.038Z,63.90
2022-08-11T20:08:31.195Z,64.00
2022-08-11T20:10:58.945Z,63.80
2022-08-11T20:13:27.492Z,64.50
2022-08-11T20:15:56.758Z,62.60
2022-08-11T20:18:25.293Z,63.00
2022-08-11T20:20:56.421Z,62.50
2022-08-11T20:23:25.297Z,61.70
2022-08-11T20:25:59.156Z,62.30
2022-08-11T20:28:33.431Z,62.10
2022-08-11T20:31:01.647Z,62.90
2022-08-11T20:33:28.921Z,62.70
2022-08-11T20:35:55.761Z,63.30
2022-08-11T20:38:24.275Z,63.80
2022-08-11T20:40:53.723Z,63.90
2022-08-11T20:44:06.286Z,64.20
2022-08-11T20:46:11.143Z,64.50
2022-08-11T20:48:40.243Z,65.80
2022-08-11T20:51:09.424Z,65.10
2022-08-11T20:53:45.805Z,65.70
2022-08-11T20:56:13.350Z,65.70
2022-08-11T20:59:13.762Z,65.70
2022-08-11T21:01:38.362Z,66.10
2022-08-11T21:04:05.964Z,67.00
2022-08-11T21:06:34.826Z,67.50
2022-08-11T21:09:05.737Z,67.50
2022-08-11T21:11:36.133Z,67.90
2022-08-11T21:14:07.927Z,68.30
2022-08-11T21:16:38.601Z,68.30
2022-08-11T21:19:16.294Z,68.80
2022-08-11T21:21:46.551Z,68.90
2022-08-11T21:24:20.275Z,69.80
2022-08-11T21:26:51.771Z,70.00
2022-08-11T21:29:20.214Z,72.00
2022-08-11T21:31:49.351Z,73.60
2022-08-11T21:34:19.169Z,73.90
2022-08-11T21:36:47.303Z,73.30
2022-08-11T21:39:19.425Z,73.90
2022-08-11T21:41:54.116Z,74.40
2022-08-11T21:44:22.345Z,70.70
2022-08-11T21:46:50.568Z,74.30
2022-08-11T21:49:20.590Z,74.90
2022-08-11T21:51:47.507Z,78.40
2022-08-11T21:54:15.941Z,79.20
2022-08-11T21:56:44.051Z,78.20
2022-08-11T21:59:12.579Z,79.20
2022-08-11T22:01:40.266Z,80.00
2022-08-11T22:04:08.472Z,71.50
2022-08-11T22:06:36.345Z,71.70
2022-08-11T22:09:03.997Z,71.60
2022-08-11T22:11:32.835Z,72.10
2022-08-11T22:14:08.239Z,72.30
2022-08-11T22:16:36.111Z,73.30
2022-08-11T22:19:05.754Z,78.40
2022-08-11T22:21:56.535Z,76.60
2022-08-11T22:24:30.074Z,76.00
2022-08-11T22:26:57.376Z,76.60
2022-08-11T22:29:41.320Z,78.60
2022-08-11T22:32:12.545Z,82.40
2022-08-11T22:34:40.760Z,85.00
2022-08-11T22:37:27.332Z,85.80
2022-08-11T22:40:01.503Z,83.40
2022-08-11T22:42:34.129Z,83.10
2022-08-11T22:45:01.869Z,84.10
2022-08-11T22:47:40.461Z,86.50
2022-08-11T22:50:10.197Z,80.10
2022-08-11T22:52:38.026Z,80.10
2022-08-11T22:55:06.529Z,83.30
2022-08-11T22:57:39.043Z,83.00
2022-08-11T23:00:06.919Z,86.00
2022-08-11T23:05:02.249Z,73.50
2022-08-11T23:07:50.552Z,73.80
2022-08-11T23:10:18.282Z,74.50
2022-08-11T23:12:47.525Z,73.40
2022-08-11T23:15:14.955Z,73.90
2022-08-11T23:17:42.512Z,73.40
2022-08-11T23:20:27.271Z,73.40
2022-08-11T23:22:58.771Z,73.90
2022-08-11T23:25:27.166Z,72.80
2022-08-11T23:27:55.413Z,72.60
2022-08-11T23:30:24.071Z,72.90
2022-08-11T23:33:02.881Z,72.50
2022-08-11T23:35:38.149Z,72.20
2022-08-11T23:38:07.569Z,72.20
2022-08-11T23:40:34.439Z,72.00
2022-08-11T23:43:01.573Z,72.20
2022-08-11T23:45:28.380Z,72.60
2022-08-11T23:47:56.436Z,72.30
2022-08-11T23:50:24.169Z,72.20
2022-08-11T23:52:52.231Z,72.60
2022-08-11T23:55:20.146Z,72.30
2022-08-11T23:57:48.788Z,72.40
